createdAt,value
2022-12-06T00:01:59.363Z,32.70
2022-12-06T00:05:32.792Z,32.90
2022-12-06T00:08:54.660Z,32.30
2022-12-06T00:18:57.291Z,34.80
2022-12-06T00:22:31.259Z,35.60
2022-12-06T00:26:10.838Z,31.90
2022-12-06T00:29:34.726Z,30.10
2022-12-06T00:33:26.674Z,37.40
2022-12-06T00:36:34.322Z,41.60
2022-12-06T00:39:53.384Z,41.20
2022-12-06T00:42:41.118Z,38.60
2022-12-06T00:45:20.490Z,35.20
2022-12-06T00:47:55.276Z,32.40
2022-12-06T00:50:29.837Z,32.90
2022-12-06T00:53:03.970Z,35.20
2022-12-06T00:55:38.329Z,35.00
2022-12-06T00:58:12.815Z,34.70
2022-12-06T01:00:47.521Z,33.00
2022-12-06T01:03:22.496Z,31.90
2022-12-06T01:05:57.014Z,33.10
2022-12-06T01:08:31.118Z,30.50
2022-12-06T01:11:06.080Z,30.60
2022-12-06T01:13:40.263Z,29.30
2022-12-06T01:16:18.433Z,29.40
2022-12-06T01:18:56.123Z,29.00
2022-12-06T01:21:30.801Z,29.00
2022-12-06T01:24:04.505Z,28.80
2022-12-06T01:26:40.411Z,29.10
2022-12-06T01:29:14.395Z,29.40
2022-12-06T01:31:48.301Z,28.70
2022-12-06T01:34:22.039Z,27.60
2022-12-06T01:36:55.673Z,28.80
2022-12-06T01:39:29.891Z,28.40
2022-12-06T01:42:03.767Z,28.20
2022-12-06T01:44:50.822Z,28.10
2022-12-06T01:47:29.945Z,27.70
2022-12-06T01:50:10.859Z,27.50
2022-12-06T01:52:54.858Z,26.90
2022-12-06T01:55:35.716Z,26.20
2022-12-06T01:58:14.497Z,27.80
2022-12-06T02:00:48.477Z,28.10
2022-12-06T02:03:27.614Z,26.50
2022-12-06T02:06:05.050Z,27.20
2022-12-06T02:08:40.629Z,27.50
2022-12-06T02:11:14.256Z,24.70
2022-12-06T02:13:48.098Z,26.30
2022-12-06T02:16:49.616Z,26.30
2022-12-06T02:19:54.189Z,25.80
2022-12-06T02:22:38.206Z,29.50
2022-12-06T02:25:47.800Z,33.30
2022-12-06T02:29:02.711Z,31.20
2022-12-06T02:31:43.940Z,30.50
2022-12-06T02:34:22.578Z,32.00
2022-12-06T02:37:07.177Z,32.00
2022-12-06T02:39:47.402Z,29.40
2022-12-06T02:42:26.459Z,30.30
2022-12-06T02:45:06.304Z,28.90
2022-12-06T02:47:42.984Z,27.80
2022-12-06T02:50:23.717Z,26.20
2022-12-06T02:53:01.614Z,25.00
2022-12-06T02:55:37.164Z,26.20
2022-12-06T02:58:10.993Z,27.70
2022-12-06T03:00:47.691Z,26.10
2022-12-06T03:03:43.211Z,26.50
2022-12-06T03:06:52.483Z,24.70
2022-12-06T03:09:54.167Z,25.00
2022-12-06T03:12:42.149Z,23.30
2022-12-06T03:15:27.906Z,23.80
2022-12-06T03:18:09.683Z,28.20
2022-12-06T03:20:52.046Z,26.70
2022-12-06T03:23:32.945Z,24.90
2022-12-06T03:26:10.860Z,27.50
2022-12-06T03:28:47.527Z,25.60
2022-12-06T03:31:22.961Z,24.80
2022-12-06T03:34:02.938Z,25.90
2022-12-06T03:36:37.463Z,26.50
2022-12-06T03:39:15.372Z,24.00
2022-12-06T03:41:54.900Z,24.50
2022-12-06T03:44:29.126Z,24.60
2022-12-06T03:47:12.543Z,24.70
2022-12-06T03:49:52.606Z,24.80
2022-12-06T03:52:29.389Z,24.80
2022-12-06T03:55:03.322Z,24.60
2022-12-06T03:57:37.280Z,24.50
2022-12-06T04:00:14.043Z,25.00
2022-12-06T04:02:47.870Z,26.30
2022-12-06T04:05:22.354Z,24.50
2022-12-06T04:07:57.729Z,24.20
2022-12-06T04:10:33.464Z,24.30
2022-12-06T04:13:09.724Z,26.90
2022-12-06T04:15:44.233Z,24.20
2022-12-06T04:18:18.949Z,24.10
2022-12-06T04:21:18.032Z,25.40
2022-12-06T04:23:54.619Z,26.50
2022-12-06T04:26:29.410Z,27.40
2022-12-06T04:29:20.761Z,29.40
2022-12-06T04:32:11.723Z,37.00
2022-12-06T04:35:02.882Z,36.30
2022-12-06T04:37:54.128Z,39.40
2022-12-06T04:40:27.896Z,37.80
2022-12-06T04:43:19.184Z,39.00
2022-12-06T04:45:53.947Z,35.30
2022-12-06T04:48:27.791Z,35.00
2022-12-06T04:51:01.583Z,33.20
2022-12-06T04:53:35.725Z,33.40
2022-12-06T04:56:10.189Z,33.60
2022-12-06T04:58:44.301Z,35.00
2022-12-06T05:01:18.402Z,33.40
2022-12-06T05:03:52.514Z,32.40
2022-12-06T05:06:26.554Z,32.10
2022-12-06T05:09:00.351Z,31.70
2022-12-06T05:11:33.997Z,33.30
2022-12-06T05:14:07.630Z,31.20
2022-12-06T05:16:41.521Z,30.60
2022-12-06T05:19:17.170Z,28.30
2022-12-06T05:21:51.007Z,28.90
2022-12-06T05:24:24.778Z,30.10
2022-12-06T05:26:58.443Z,29.30
2022-12-06T05:29:32.583Z,29.10
2022-12-06T05:32:06.842Z,28.00
2022-12-06T05:34:40.382Z,27.40
2022-12-06T05:37:14.656Z,28.70
2022-12-06T05:39:48.552Z,27.70
2022-12-06T05:42:22.760Z,28.00
2022-12-06T05:44:56.943Z,28.30
2022-12-06T05:47:30.796Z,27.70
2022-12-06T05:50:05.147Z,28.20
2022-12-06T05:52:38.722Z,26.60
2022-12-06T05:55:13.691Z,28.30
2022-12-06T05:57:47.963Z,26.90
2022-12-06T06:00:23.928Z,25.80
2022-12-06T06:02:57.994Z,27.10
2022-12-06T06:05:31.830Z,27.20
2022-12-06T06:08:05.886Z,28.50
2022-12-06T06:10:39.616Z,25.90
2022-12-06T06:13:13.862Z,23.50
2022-12-06T06:15:48.688Z,23.70
2022-12-06T06:18:23.238Z,24.90
2022-12-06T06:21:01.573Z,23.40
2022-12-06T06:23:35.832Z,23.20
2022-12-06T06:26:13.330Z,26.70
2022-12-06T06:28:47.208Z,25.60
2022-12-06T06:31:21.067Z,27.70
2022-12-06T06:33:54.775Z,29.20
2022-12-06T06:36:28.506Z,27.90
2022-12-06T06:39:02.163Z,26.70
2022-12-06T06:41:35.921Z,27.20
2022-12-06T06:44:09.729Z,27.10
2022-12-06T06:46:43.369Z,24.70
2022-12-06T06:49:17.733Z,25.70
2022-12-06T06:51:51.679Z,26.90
2022-12-06T06:54:27.994Z,15.70
2022-12-06T06:57:02.952Z,13.50
2022-12-06T06:59:37.348Z,15.90
2022-12-06T07:02:13.153Z,13.60
2022-12-06T07:04:47.816Z,10.50
2022-12-06T07:07:21.696Z,10.90
2022-12-06T07:09:55.500Z,11.00
2022-12-06T07:12:29.366Z,10.80
2022-12-06T07:15:03.041Z,11.90
2022-12-06T07:17:37.077Z,11.10
2022-12-06T07:20:14.826Z,9.10
2022-12-06T07:22:50.056Z,8.90
2022-12-06T07:25:26.275Z,9.60
2022-12-06T07:28:02.964Z,9.80
2022-12-06T07:30:40.065Z,9.30
2022-12-06T07:33:16.006Z,8.30
2022-12-06T07:36:12.026Z,9.60
2022-12-06T07:38:53.996Z,9.20
2022-12-06T07:41:49.147Z,9.50
2022-12-06T07:45:03.148Z,9.00
2022-12-06T07:47:40.975Z,8.50
2022-12-06T07:50:20.181Z,8.70
2022-12-06T07:52:57.016Z,8.40
2022-12-06T07:55:32.238Z,9.40
2022-12-06T07:58:07.927Z,8.00
2022-12-06T08:00:44.101Z,7.70
2022-12-06T08:03:19.990Z,8.90
2022-12-06T08:06:00.238Z,9.00
2022-12-06T08:08:34.883Z,7.90
2022-12-06T08:11:12.951Z,8.30
2022-12-06T08:13:48.991Z,10.60
2022-12-06T08:16:24.200Z,9.40
2022-12-06T08:19:00.985Z,10.20
2022-12-06T08:21:36.188Z,9.00
2022-12-06T08:31:54.952Z,9.90
2022-12-06T08:34:29.067Z,9.00
2022-12-06T08:37:03.693Z,8.50
2022-12-06T08:39:37.803Z,8.80
2022-12-06T08:42:11.898Z,7.70
2022-12-06T08:44:45.882Z,8.20
2022-12-06T08:47:19.936Z,8.00
2022-12-06T08:49:55.811Z,8.00
2022-12-06T08:52:29.500Z,7.80
2022-12-06T08:55:03.128Z,6.90
2022-12-06T08:57:38.446Z,7.30
2022-12-06T09:00:16.457Z,7.80
2022-12-06T09:02:50.163Z,7.20
2022-12-06T09:05:24.150Z,7.40
2022-12-06T09:07:57.933Z,7.20
2022-12-06T09:10:31.690Z,7.60
2022-12-06T09:13:05.506Z,7.00
2022-12-06T09:15:40.575Z,7.20
2022-12-06T09:18:14.554Z,7.50
2022-12-06T09:20:48.440Z,6.90
2022-12-06T09:23:22.565Z,7.20
2022-12-06T09:25:56.376Z,6.30
2022-12-06T09:28:32.176Z,7.10
2022-12-06T09:31:07.680Z,5.60
2022-12-06T09:33:42.385Z,6.80
2022-12-06T09:36:23.724Z,6.50
2022-12-06T09:39:04.883Z,6.50
2022-12-06T09:42:02.660Z,6.70
2022-12-06T09:45:14.395Z,7.90
2022-12-06T09:48:10.928Z,7.80
2022-12-06T09:51:04.287Z,8.00
2022-12-06T09:53:59.430Z,6.20
2022-12-06T09:56:40.759Z,7.60
2022-12-06T09:59:34.118Z,8.50
2022-12-06T10:02:37.275Z,6.60
2022-12-06T10:05:34.680Z,8.00
2022-12-06T10:08:26.331Z,8.30
2022-12-06T10:11:13.990Z,8.30
2022-12-06T10:14:03.545Z,8.90
2022-12-06T10:16:57.164Z,6.00
2022-12-06T10:19:48.565Z,9.00
2022-12-06T10:22:38.342Z,8.70
2022-12-06T10:25:22.467Z,8.70
2022-12-06T10:28:12.314Z,7.30
2022-12-06T10:30:57.148Z,7.20
2022-12-06T10:33:47.247Z,6.80
2022-12-06T10:36:35.881Z,4.40
2022-12-06T10:39:22.629Z,6.20
2022-12-06T10:42:08.125Z,5.70
2022-12-06T10:44:50.145Z,7.30
2022-12-06T10:47:33.051Z,8.30
2022-12-06T10:50:21.361Z,7.90
2022-12-06T10:53:04.478Z,6.90
2022-12-06T10:55:47.168Z,5.70
2022-12-06T10:58:36.318Z,6.90
2022-12-06T11:01:19.065Z,6.80
2022-12-06T11:04:01.777Z,6.60
2022-12-06T11:06:50.017Z,7.30
2022-12-06T11:09:40.124Z,7.50
2022-12-06T11:12:31.284Z,6.20
2022-12-06T11:15:18.909Z,6.90
2022-12-06T11:18:02.314Z,5.50
2022-12-06T11:20:45.908Z,7.50
2022-12-06T11:23:27.146Z,7.00
2022-12-06T11:26:23.265Z,7.50
2022-12-06T11:29:06.124Z,7.00
2022-12-06T11:31:48.015Z,6.90
2022-12-06T11:34:27.641Z,5.40
2022-12-06T11:37:04.621Z,5.50
2022-12-06T11:39:40.661Z,4.70
2022-12-06T11:42:19.808Z,10.30
2022-12-06T11:45:05.441Z,10.70
2022-12-06T11:47:39.499Z,5.30
2022-12-06T11:50:20.870Z,8.00
2022-12-06T11:53:03.964Z,6.30
2022-12-06T11:55:45.560Z,5.90
2022-12-06T11:58:27.035Z,4.30
2022-12-06T12:01:08.258Z,5.10
2022-12-06T12:03:48.359Z,10.20
2022-12-06T12:06:28.583Z,7.20
2022-12-06T12:09:07.254Z,5.60
2022-12-06T12:11:42.591Z,22.00
2022-12-06T12:14:28.265Z,7.10
2022-12-06T12:17:04.952Z,5.70
2022-12-06T12:19:46.604Z,6.00
2022-12-06T12:22:30.070Z,8.40
2022-12-06T12:25:22.493Z,6.40
2022-12-06T12:28:01.244Z,5.80
2022-12-06T12:30:40.035Z,5.90
2022-12-06T12:33:25.108Z,5.60
2022-12-06T12:36:21.893Z,5.60
2022-12-06T12:39:00.925Z,5.80
2022-12-06T12:41:42.702Z,5.50
2022-12-06T12:44:42.467Z,5.50
2022-12-06T12:47:22.619Z,5.60
2022-12-06T12:50:18.721Z,6.40
2022-12-06T12:52:54.076Z,5.00
2022-12-06T12:55:32.238Z,5.90
2022-12-06T12:58:10.577Z,5.40
2022-12-06T13:00:49.103Z,6.00
2022-12-06T13:03:50.149Z,6.20
2022-12-06T13:06:32.658Z,6.30
2022-12-06T13:09:15.957Z,7.00
2022-12-06T13:12:02.919Z,6.60
2022-12-06T13:14:39.916Z,6.10
2022-12-06T13:17:17.165Z,6.40
2022-12-06T13:19:53.773Z,7.10
2022-12-06T13:22:38.921Z,6.50
2022-12-06T13:25:15.258Z,5.30
2022-12-06T13:27:54.713Z,6.20
2022-12-06T13:30:32.212Z,5.50
2022-12-06T13:33:20.993Z,5.00
2022-12-06T13:36:02.797Z,5.70
2022-12-06T13:38:39.909Z,5.30
2022-12-06T13:41:37.600Z,5.50
2022-12-06T13:44:55.928Z,4.50
2022-12-06T13:47:52.511Z,6.00
2022-12-06T13:50:59.590Z,5.70
2022-12-06T13:53:56.042Z,6.20
2022-12-06T13:56:38.739Z,6.60
2022-12-06T13:59:41.566Z,7.70
2022-12-06T14:02:53.833Z,6.40
2022-12-06T14:06:12.122Z,6.50
2022-12-06T14:09:02.142Z,6.80
2022-12-06T14:11:39.871Z,6.60
2022-12-06T14:14:21.983Z,7.10
2022-12-06T14:17:01.858Z,5.60
2022-12-06T14:19:45.162Z,6.70
2022-12-06T14:22:31.371Z,5.80
2022-12-06T14:25:16.263Z,6.20
2022-12-06T14:27:53.489Z,5.90
2022-12-06T14:30:29.089Z,7.00
2022-12-06T14:33:04.061Z,6.30
2022-12-06T14:35:40.309Z,6.80
2022-12-06T14:38:29.154Z,6.70
2022-12-06T14:41:20.910Z,6.50
2022-12-06T14:43:58.384Z,7.00
2022-12-06T14:46:32.405Z,5.90
2022-12-06T14:49:24.186Z,6.30
2022-12-06T14:51:58.528Z,6.80
2022-12-06T14:54:46.466Z,6.90
2022-12-06T14:57:39.316Z,7.30
2022-12-06T15:00:27.639Z,7.40
2022-12-06T15:03:25.801Z,7.10
2022-12-06T15:09:15.756Z,8.10
2022-12-06T15:12:08.162Z,7.50
2022-12-06T15:14:52.922Z,7.40
2022-12-06T15:17:27.283Z,6.60
2022-12-06T15:20:05.282Z,6.90
2022-12-06T15:22:46.427Z,7.60
2022-12-06T15:25:20.940Z,7.50
2022-12-06T15:27:55.468Z,6.80
2022-12-06T15:30:30.231Z,6.80
2022-12-06T15:33:04.605Z,6.30
2022-12-06T15:35:38.790Z,7.50
2022-12-06T15:38:13.579Z,7.10
2022-12-06T15:40:51.096Z,5.90
2022-12-06T15:43:31.643Z,7.60
2022-12-06T15:46:07.231Z,8.10
2022-12-06T15:48:42.104Z,5.70
2022-12-06T15:51:21.127Z,7.60
2022-12-06T15:53:56.813Z,7.20
2022-12-06T15:56:33.663Z,7.40
2022-12-06T15:59:07.844Z,8.80
2022-12-06T16:01:45.819Z,7.60
2022-12-06T16:04:22.990Z,6.90
2022-12-06T16:06:57.379Z,7.60
2022-12-06T16:09:32.099Z,7.20
2022-12-06T16:12:06.770Z,7.40
2022-12-06T16:14:40.753Z,6.70
2022-12-06T16:17:14.945Z,7.80
2022-12-06T16:20:06.348Z,7.20
2022-12-06T16:22:58.403Z,6.30
2022-12-06T16:25:33.002Z,6.90
2022-12-06T16:28:07.719Z,6.90
2022-12-06T16:30:42.294Z,5.80
2022-12-06T16:33:21.978Z,7.20
2022-12-06T16:36:03.134Z,7.90
2022-12-06T16:38:37.165Z,6.80
2022-12-06T16:41:21.895Z,7.10
2022-12-06T16:43:57.403Z,6.80
2022-12-06T16:46:34.893Z,7.00
2022-12-06T16:52:12.733Z,7.10
2022-12-06T16:54:47.300Z,6.20
2022-12-06T16:57:21.277Z,7.00
2022-12-06T16:59:55.828Z,7.90
2022-12-06T17:02:33.804Z,8.40
2022-12-06T17:05:15.572Z,7.40
2022-12-06T17:07:50.751Z,8.30
2022-12-06T17:10:25.132Z,7.90
2022-12-06T17:12:59.680Z,7.90
2022-12-06T17:15:34.063Z,7.50
2022-12-06T17:18:09.341Z,7.60
2022-12-06T17:20:43.643Z,8.90
2022-12-06T17:23:17.888Z,8.70
2022-12-06T17:26:02.213Z,9.00
2022-12-06T17:28:36.043Z,7.60
2022-12-06T17:31:14.276Z,7.40
2022-12-06T17:33:48.626Z,8.90
2022-12-06T17:36:25.298Z,9.10
2022-12-06T17:39:02.047Z,8.50
2022-12-06T17:41:53.901Z,7.80
2022-12-06T17:44:27.910Z,8.30
2022-12-06T17:47:01.959Z,8.50
2022-12-06T17:49:38.523Z,8.60
2022-12-06T17:52:13.084Z,7.80
2022-12-06T17:54:47.267Z,7.20
2022-12-06T17:57:21.832Z,8.80
2022-12-06T17:59:56.355Z,7.30
2022-12-06T18:02:31.050Z,7.50
2022-12-06T18:05:06.308Z,8.40
2022-12-06T18:07:40.501Z,7.70
2022-12-06T18:10:16.094Z,7.60
2022-12-06T18:12:50.834Z,7.50
2022-12-06T18:15:42.091Z,8.30
2022-12-06T18:18:16.358Z,6.50
2022-12-06T18:20:50.401Z,7.70
2022-12-06T18:23:24.657Z,8.10
2022-12-06T18:26:01.777Z,8.00
2022-12-06T18:28:35.941Z,8.30
2022-12-06T18:31:11.289Z,9.10
2022-12-06T18:33:45.308Z,7.50
2022-12-06T18:36:20.496Z,7.80
2022-12-06T18:38:57.987Z,8.20
2022-12-06T18:41:33.547Z,8.50
2022-12-06T18:44:08.725Z,8.00
2022-12-06T18:46:43.062Z,8.50
2022-12-06T18:49:17.425Z,7.30
2022-12-06T18:51:51.640Z,6.30
2022-12-06T18:54:26.654Z,8.20
2022-12-06T18:57:01.211Z,5.60
2022-12-06T18:59:37.649Z,7.30
2022-12-06T19:02:14.537Z,7.50
2022-12-06T19:04:48.762Z,7.90
2022-12-06T19:07:25.072Z,7.50
2022-12-06T19:10:00.493Z,8.20
2022-12-06T19:12:34.747Z,6.70
2022-12-06T19:15:11.403Z,5.60
2022-12-06T19:17:47.458Z,6.70
2022-12-06T19:20:22.134Z,5.80
2022-12-06T19:22:56.487Z,6.20
2022-12-06T19:25:31.965Z,7.20
2022-12-06T19:28:10.102Z,6.90
2022-12-06T19:30:45.863Z,6.00
2022-12-06T19:33:21.884Z,6.90
2022-12-06T19:36:05.552Z,7.10
2022-12-06T19:38:40.324Z,6.30
2022-12-06T19:41:18.768Z,7.30
2022-12-06T19:44:10.753Z,5.30
2022-12-06T19:46:48.344Z,5.90
2022-12-06T19:49:25.782Z,6.40
2022-12-06T19:52:00.699Z,6.50
2022-12-06T19:54:37.987Z,6.10
2022-12-06T19:57:12.775Z,6.60
2022-12-06T19:59:46.622Z,6.10
2022-12-06T20:02:21.007Z,6.00
2022-12-06T20:04:55.343Z,6.20
2022-12-06T20:07:29.677Z,6.30
2022-12-06T20:10:05.112Z,6.60
2022-12-06T20:12:41.011Z,5.50
2022-12-06T20:15:16.730Z,6.30
2022-12-06T20:17:50.733Z,6.10
2022-12-06T20:20:25.022Z,6.20
2022-12-06T20:22:58.964Z,5.90
2022-12-06T20:25:37.188Z,6.30
2022-12-06T20:28:13.703Z,6.40
2022-12-06T20:30:48.449Z,7.20
2022-12-06T20:33:23.559Z,5.80
2022-12-06T20:35:59.684Z,6.20
2022-12-06T20:38:34.145Z,6.80
2022-12-06T20:41:14.629Z,6.50
2022-12-06T20:43:51.170Z,6.80
2022-12-06T20:46:28.932Z,7.10
2022-12-06T20:49:06.149Z,8.00
2022-12-06T20:51:41.094Z,7.60
2022-12-06T20:54:17.065Z,7.00
2022-12-06T20:56:53.695Z,7.50
2022-12-06T20:59:29.428Z,6.10
2022-12-06T21:02:04.728Z,6.00
2022-12-06T21:04:39.249Z,5.80
2022-12-06T21:07:13.783Z,6.10
2022-12-06T21:09:48.288Z,6.40
2022-12-06T21:12:22.603Z,6.80
2022-12-06T21:14:57.436Z,7.40
2022-12-06T21:17:34.904Z,6.00
2022-12-06T21:20:11.326Z,7.20
2022-12-06T21:22:45.708Z,8.00
2022-12-06T21:25:20.742Z,8.30
2022-12-06T21:27:55.870Z,6.80
2022-12-06T21:30:30.341Z,7.50
2022-12-06T21:33:06.196Z,6.90
2022-12-06T21:35:40.693Z,7.10
2022-12-06T21:38:16.162Z,6.80
2022-12-06T21:40:54.483Z,6.90
2022-12-06T21:43:30.389Z,6.60
2022-12-06T21:46:14.289Z,6.80
2022-12-06T21:48:53.054Z,7.20
2022-12-06T21:51:30.200Z,7.60
2022-12-06T21:54:04.380Z,7.20
2022-12-06T21:56:38.901Z,7.10
2022-12-06T21:59:12.807Z,7.50
2022-12-06T22:01:48.758Z,6.50
2022-12-06T22:04:24.468Z,6.70
2022-12-06T22:06:59.741Z,6.30
2022-12-06T22:09:35.428Z,6.30
2022-12-06T22:12:14.232Z,7.00
2022-12-06T22:14:49.958Z,5.80
2022-12-06T22:17:23.782Z,5.90
2022-12-06T22:19:58.409Z,6.10
2022-12-06T22:22:32.420Z,6.30
2022-12-06T22:25:07.187Z,6.00
2022-12-06T22:27:40.846Z,6.00
2022-12-06T22:30:16.391Z,6.10
2022-12-06T22:32:50.265Z,6.40
2022-12-06T22:35:23.986Z,6.60
2022-12-06T22:37:57.696Z,6.60
2022-12-06T22:40:31.744Z,6.20
2022-12-06T22:50:09.974Z,6.70
2022-12-06T22:52:44.139Z,4.90
2022-12-06T22:55:18.524Z,6.90
2022-12-06T22:57:52.357Z,4.90
2022-12-06T23:00:26.780Z,6.90
2022-12-06T23:03:01.019Z,5.80
2022-12-06T23:05:34.801Z,6.00
2022-12-06T23:08:09.369Z,5.60
2022-12-06T23:10:43.159Z,6.50
2022-12-06T23:13:17.333Z,6.60
2022-12-06T23:15:59.919Z,6.30
2022-12-06T23:18:34.308Z,4.90
2022-12-06T23:21:13.375Z,6.50
2022-12-06T23:23:50.746Z,5.80
2022-12-06T23:26:27.570Z,5.50
2022-12-06T23:29:01.745Z,6.30
2022-12-06T23:31:38.995Z,5.90
2022-12-06T23:34:17.212Z,5.90
2022-12-06T23:36:52.379Z,6.40
2022-12-06T23:39:26.080Z,5.30
2022-12-06T23:41:59.862Z,5.30
2022-12-06T23:44:33.586Z,6.20
2022-12-06T23:47:07.904Z,5.50
2022-12-06T23:49:41.797Z,5.20
2022-12-06T23:52:15.492Z,5.60
2022-12-06T23:54:49.437Z,6.10
2022-12-06T23:57:23.144Z,4.90
2022-12-06T23:59:57.281Z,4.70
